Terminal Aerodrome Forecast
Issued by NWS

Home | Current Version | Previous Version | Text Only | Print | Product List | Glossary On
Versions: 1 2 3 4 5 6 7 8 9 10 11 12 13
374
FTUS46 KLOX 272353
TAFVNY
TAF
KVNY 272353Z 2800/2824 15010KT P6SM FEW150
     FM280100 28008KT P6SM FEW150
     FM280400 11004KT P6SM SKC
     FM282000 14010KT P6SM SKC=

USA.gov is the U.S. government's official web portal to all federal, state and local government web resources and services.